Time;durP1;ratioP1;P1;durP2;ratioP2;P2;SDS_P1;SDS_P2;PMS_P1;PMS_P2;Temp;Humidity;BMP_temperature;BMP_pressure;BME280_temperature;BME280_humidity;BME280_pressure;Samples;Min_cycle;Max_cycle;Signal;HPM_P1;HPM_P2
2023/03/06 00:00:18;;;;;;;32.50;12.98;;;;;;;1.33;100.00;98022.16;4950055;29;20279;-75
2023/03/06 00:02:44;;;;;;;31.33;12.68;;;;;;;1.49;100.00;98044.34;4942520;28;20484;-76
2023/03/06 00:05:10;;;;;;;28.67;13.00;;;;;;;1.52;100.00;98046.69;4947988;28;20031;-75
2023/03/06 00:07:35;;;;;;;37.13;13.77;;;;;;;1.46;100.00;98041.97;4952013;28;20124;-75
2023/03/06 00:10:01;;;;;;;26.25;12.02;;;;;;;1.40;100.00;98021.31;4949584;29;20024;-76
2023/03/06 00:12:26;;;;;;;28.90;12.00;;;;;;;1.41;100.00;98028.31;4933628;29;20028;-75
2023/03/06 00:14:52;;;;;;;31.85;12.20;;;;;;;1.58;100.00;98057.69;4935707;29;20123;-76
2023/03/06 00:17:17;;;;;;;28.73;11.43;;;;;;;1.34;100.00;98019.34;4946984;29;20035;-76
2023/03/06 00:19:42;;;;;;;34.92;13.10;;;;;;;1.42;100.00;98034.50;4989717;28;20031;-75
2023/03/06 00:22:12;;;;;;;29.65;12.60;;;;;;;1.35;100.00;98022.81;4952507;28;20027;-75
2023/03/06 00:24:37;;;;;;;29.08;12.35;;;;;;;1.40;100.00;98033.81;4948895;29;20160;-76
2023/03/06 00:27:02;;;;;;;34.15;12.48;;;;;;;1.45;100.00;98028.84;4972719;28;20114;-75
2023/03/06 00:29:28;;;;;;;30.80;12.50;;;;;;;1.22;100.00;97981.50;4950760;29;20031;-75
2023/03/06 00:31:53;;;;;;;27.42;12.98;;;;;;;1.30;100.00;97994.00;4953603;29;20427;-75
2023/03/06 00:34:18;;;;;;;31.52;13.00;;;;;;;1.33;100.00;97999.00;4946730;28;20485;-76
2023/03/06 00:36:44;;;;;;;29.67;12.73;;;;;;;1.45;100.00;98008.34;4962730;28;20023;-75
2023/03/06 00:39:09;;;;;;;31.42;12.77;;;;;;;1.50;100.00;98029.19;4950638;28;20041;-76
2023/03/06 00:41:34;;;;;;;34.22;13.02;;;;;;;1.43;100.00;98015.66;4942640;28;20060;-75
2023/03/06 00:44:00;;;;;;;35.50;13.90;;;;;;;1.44;100.00;98009.34;4952421;28;20035;-76
2023/03/06 00:46:25;;;;;;;30.63;12.63;;;;;;;1.40;100.00;98001.84;4947034;28;20091;-75
2023/03/06 00:48:50;;;;;;;36.33;13.45;;;;;;;1.39;100.00;97987.69;4942375;28;20142;-75
2023/03/06 00:51:18;;;;;;;33.45;12.82;;;;;;;1.57;100.00;98013.34;4950219;28;20090;-76
2023/03/06 00:53:43;;;;;;;30.50;14.00;;;;;;;1.52;100.00;98004.03;4951117;29;20030;-76
2023/03/06 00:56:09;;;;;;;34.08;13.50;;;;;;;1.52;100.00;98005.88;4949198;28;20039;-75
2023/03/06 00:58:36;;;;;;;29.77;11.77;;;;;;;1.65;100.00;97998.19;4963703;28;20031;-77
2023/03/06 01:01:01;;;;;;;28.77;12.27;;;;;;;1.71;100.00;97978.03;4977047;28;20404;-75
2023/03/06 01:03:26;;;;;;;26.67;12.70;;;;;;;1.59;100.00;97963.38;4950649;28;20012;-75
2023/03/06 01:05:52;;;;;;;26.55;12.18;;;;;;;1.30;100.00;97930.03;4944661;29;20122;-76
2023/03/06 01:08:17;;;;;;;35.92;13.00;;;;;;;1.48;100.00;97970.69;4949142;29;20023;-76
2023/03/06 01:10:42;;;;;;;36.15;13.68;;;;;;;1.46;100.00;97967.34;4949405;28;20019;-75
2023/03/06 01:13:08;;;;;;;29.15;12.80;;;;;;;1.56;100.00;97977.03;4949701;28;20035;-78
2023/03/06 01:15:33;;;;;;;25.98;11.82;;;;;;;1.49;100.00;97967.03;4947184;29;20035;-77
2023/03/06 01:17:58;;;;;;;29.98;12.48;;;;;;;1.29;100.00;97950.53;4953380;28;20023;-76
2023/03/06 01:20:24;;;;;;;34.90;13.60;;;;;;;1.35;100.00;97974.84;4947706;29;20505;-76
2023/03/06 01:22:49;;;;;;;30.42;13.18;;;;;;;1.14;100.00;97952.19;4964050;29;20026;-76
2023/03/06 01:25:15;;;;;;;31.67;12.98;;;;;;;1.27;100.00;97973.00;4968822;28;20058;-76
2023/03/06 01:27:40;;;;;;;36.00;15.07;;;;;;;1.14;100.00;97936.19;4962419;28;20095;-76
2023/03/06 01:30:06;;;;;;;27.60;12.43;;;;;;;1.17;100.00;97946.53;4946832;29;20069;-76
2023/03/06 01:32:32;;;;;;;31.38;13.55;;;;;;;1.30;100.00;97972.69;4946734;28;20111;-75
2023/03/06 01:34:57;;;;;;;35.58;12.75;;;;;;;1.24;100.00;97954.69;4949251;28;20065;-76
2023/03/06 01:37:23;;;;;;;31.65;12.93;;;;;;;1.29;100.00;97960.38;4950808;28;20031;-76
2023/03/06 01:39:48;;;;;;;28.95;13.10;;;;;;;1.09;100.00;97944.66;4948601;28;20400;-76
2023/03/06 01:42:14;;;;;;;35.72;13.93;;;;;;;1.20;100.00;97961.34;4949225;29;20031;-76
2023/03/06 01:44:58;;;;;;;34.03;14.27;;;;;;;1.17;100.00;97972.34;4945962;28;20082;-76
2023/03/06 01:47:24;;;;;;;34.40;13.63;;;;;;;1.03;100.00;97944.50;4958804;28;20523;-76
2023/03/06 01:49:49;;;;;;;34.35;13.35;;;;;;;1.05;100.00;97945.19;4964752;28;20035;-75
2023/03/06 01:52:18;;;;;;;34.58;14.45;;;;;;;0.87;100.00;97921.34;4966474;28;20023;-75
2023/03/06 01:54:49;;;;;;;37.40;14.55;;;;;;;0.83;100.00;97909.34;4953100;28;20031;-76
2023/03/06 01:57:28;;;;;;;31.15;13.82;;;;;;;0.95;100.00;97931.19;4951006;28;20035;-75
2023/03/06 01:59:58;;;;;;;;;;;;;;;1.06;100.00;97938.84;4953113;28;20039;-75
2023/03/06 02:02:24;;;;;;;38.00;13.18;;;;;;;0.97;100.00;97930.03;4952710;28;19914;-75
2023/03/06 02:04:49;;;;;;;34.60;14.50;;;;;;;0.82;100.00;97911.19;4956738;28;20453;-75
2023/03/06 02:07:18;;;;;;;33.30;13.57;;;;;;;1.08;100.00;97937.69;4971157;28;20045;-75
2023/03/06 02:09:43;;;;;;;35.25;13.40;;;;;;;1.04;100.00;97911.53;4951915;28;20666;-75
2023/03/06 02:12:13;;;;;;;35.97;15.57;;;;;;;0.89;100.00;97900.69;4953353;28;20036;-76
2023/03/06 02:14:39;;;;;;;;;;;;;;;1.15;100.00;97921.03;4956546;28;20035;-75
2023/03/06 02:17:05;;;;;;;36.80;14.70;;;;;;;1.12;100.00;97916.03;4983519;28;19997;-76
2023/03/06 02:19:49;;;;;;;30.27;13.45;;;;;;;1.15;100.00;97907.72;4953306;29;20031;-75
2023/03/06 02:22:14;;;;;;;36.90;13.50;;;;;;;1.11;100.00;97899.25;4953074;29;20031;-75
2023/03/06 02:24:48;;;;;;;37.45;14.13;;;;;;;1.04;100.00;97909.72;4972284;28;20401;-75
2023/03/06 02:27:16;;;;;;;34.00;14.27;;;;;;;0.92;100.00;97873.75;4954563;28;20027;-76
2023/03/06 02:29:42;;;;;;;33.33;14.75;;;;;;;1.06;100.00;97893.56;4969324;28;20118;-75
2023/03/06 02:32:08;;;;;;;37.97;13.88;;;;;;;1.02;100.00;97890.41;4954281;28;20024;-75
2023/03/06 02:34:45;;;;;;;29.02;12.25;;;;;;;1.01;100.00;97885.25;4956960;28;20178;-75
2023/03/06 02:37:10;;;;;;;30.85;13.35;;;;;;;1.01;100.00;97893.22;4970141;28;20033;-75
2023/03/06 02:39:50;;;;;;;32.38;13.00;;;;;;;1.07;100.00;97898.75;4959492;28;20019;-75
2023/03/06 02:42:17;;;;;;;32.72;13.55;;;;;;;0.87;100.00;97876.91;4954474;29;20031;-75
2023/03/06 02:44:43;;;;;;;32.75;14.75;;;;;;;0.83;100.00;97861.41;5014941;28;20048;-75
2023/03/06 02:47:09;;;;;;;34.08;14.23;;;;;;;0.95;100.00;97886.75;5034850;23;20075;-67
2023/03/06 02:49:34;;;;;;;32.78;13.55;;;;;;;0.94;100.00;97881.56;4968790;28;20027;-67
2023/03/06 02:52:00;;;;;;;28.35;13.15;;;;;;;0.97;100.00;97887.41;4973845;28;20027;-69
2023/03/06 02:54:25;;;;;;;34.00;13.13;;;;;;;1.01;100.00;97885.25;4956537;28;20039;-67
2023/03/06 02:56:51;;;;;;;37.78;14.38;;;;;;;0.96;100.00;97874.25;4944735;28;20031;-67
2023/03/06 02:59:17;;;;;;;27.25;13.07;;;;;;;0.97;100.00;97879.44;4952262;28;20493;-69
2023/03/06 03:01:42;;;;;;;30.33;13.00;;;;;;;0.94;100.00;97876.25;4956474;29;20030;-69
2023/03/06 03:04:08;;;;;;;32.78;14.40;;;;;;;1.01;100.00;97878.09;4956244;29;20077;-66
2023/03/06 03:06:34;;;;;;;32.50;12.60;;;;;;;1.06;100.00;97880.25;4969731;28;20035;-66
2023/03/06 03:09:00;;;;;;;28.83;13.63;;;;;;;1.02;100.00;97878.91;4970207;28;20390;-66
2023/03/06 03:11:25;;;;;;;30.08;13.40;;;;;;;1.00;100.00;97876.44;4953375;28;20034;-66
2023/03/06 03:13:50;;;;;;;33.38;13.95;;;;;;;0.88;100.00;97867.91;4964070;23;20054;-77
2023/03/06 03:16:16;;;;;;;28.48;13.50;;;;;;;0.81;100.00;97866.94;4957062;28;20042;-77
2023/03/06 03:18:43;;;;;;;31.55;13.35;;;;;;;0.72;100.00;97856.44;4961242;28;20051;-77
2023/03/06 03:21:11;;;;;;;28.55;13.23;;;;;;;0.71;100.00;97870.72;4967397;28;20134;-76
2023/03/06 03:23:36;;;;;;;29.92;12.80;;;;;;;0.67;100.00;97856.09;4935516;29;20027;-76
2023/03/06 03:26:10;;;;;;;37.95;13.80;;;;;;;0.68;100.00;97871.03;4933591;29;20077;-76
2023/03/06 03:28:35;;;;;;;29.25;12.43;;;;;;;0.73;100.00;97860.75;4933966;28;20076;-76
2023/03/06 03:31:05;;;;;;;27.27;13.20;;;;;;;0.81;100.00;97866.06;4934706;29;20122;-76
2023/03/06 03:33:31;;;;;;;28.80;12.82;;;;;;;0.82;100.00;97865.09;4932640;29;20053;-76
2023/03/06 03:35:58;;;;;;;31.45;13.98;;;;;;;0.87;100.00;97868.09;4949395;28;20063;-76
2023/03/06 03:38:24;;;;;;;31.65;13.38;;;;;;;0.82;100.00;97855.28;4946576;28;20023;-76
2023/03/06 03:40:49;;;;;;;30.70;13.88;;;;;;;0.83;100.00;97856.09;4933554;29;20036;-76
2023/03/06 03:43:14;;;;;;;30.88;13.18;;;;;;;0.88;100.00;97853.78;4934425;28;20023;-76
2023/03/06 03:45:39;;;;;;;30.42;12.65;;;;;;;0.87;100.00;97844.97;4934245;28;20039;-76
2023/03/06 03:48:05;;;;;;;28.15;12.60;;;;;;;0.86;100.00;97856.63;4932350;28;20099;-77
2023/03/06 03:50:32;;;;;;;29.80;12.98;;;;;;;0.75;100.00;97848.09;4932633;28;20473;-74
2023/03/06 03:52:57;;;;;;;30.83;13.30;;;;;;;0.76;100.00;97861.25;4934787;29;20036;-74
2023/03/06 03:55:23;;;;;;;37.55;13.25;;;;;;;0.76;100.00;97863.06;4949552;28;20019;-74
2023/03/06 03:57:48;;;;;;;29.58;12.50;;;;;;;0.69;100.00;97851.44;4929201;28;20558;-74
2023/03/06 04:00:15;;;;;;;30.67;12.85;;;;;;;0.63;100.00;97832.47;4933253;28;20043;-77
2023/03/06 04:02:44;;;;;;;28.65;13.07;;;;;;;0.75;100.00;97850.78;4946323;28;20058;-77
2023/03/06 04:05:13;;;;;;;36.92;13.73;;;;;;;0.61;100.00;97834.44;4948238;28;20028;-78
2023/03/06 04:07:39;;;;;;;23.23;9.98;;;;;;;0.80;100.00;97841.28;4961937;28;20047;-76
2023/03/06 04:10:06;;;;;;;29.05;13.48;;;;;;;0.79;100.00;97820.16;4928035;28;20039;-76
2023/03/06 04:12:31;;;;;;;34.75;14.18;;;;;;;0.78;100.00;97834.47;4926499;29;20592;-76
2023/03/06 04:14:57;;;;;;;34.65;14.43;;;;;;;0.80;100.00;97827.16;4933022;29;20118;-75
2023/03/06 04:17:22;;;;;;;31.98;13.07;;;;;;;0.63;100.00;97816.50;4931732;29;20481;-75
2023/03/06 04:19:48;;;;;;;29.50;13.48;;;;;;;0.59;100.00;97831.09;4943869;29;20040;-75
2023/03/06 04:22:13;;;;;;;38.15;13.38;;;;;;;0.59;100.00;97827.63;4948022;29;20124;-75
2023/03/06 04:24:38;;;;;;;29.52;13.77;;;;;;;0.51;100.00;97833.75;4948256;28;20028;-75
2023/03/06 04:27:04;;;;;;;30.20;13.15;;;;;;;0.40;100.00;97818.94;4946721;28;20882;-74
2023/03/06 04:29:29;;;;;;;32.20;13.18;;;;;;;0.41;100.00;97823.25;4929177;29;20034;-75
2023/03/06 04:31:54;;;;;;;35.83;13.43;;;;;;;0.46;100.00;97812.13;4936401;28;20031;-79
2023/03/06 04:34:20;;;;;;;34.28;14.07;;;;;;;0.48;100.00;97830.59;4933698;29;20110;-77
2023/03/06 04:36:45;;;;;;;32.25;13.80;;;;;;;0.40;100.00;97823.44;4938405;28;20023;-77
2023/03/06 04:39:12;;;;;;;26.65;13.48;;;;;;;0.37;100.00;97794.50;4931895;29;20032;-76
2023/03/06 04:41:38;;;;;;;32.90;13.15;;;;;;;0.54;100.00;97812.13;4930417;28;20034;-76
2023/03/06 04:44:04;;;;;;;35.28;13.32;;;;;;;0.48;100.00;97806.66;4930002;29;20024;-79
2023/03/06 04:46:29;;;;;;;30.90;13.50;;;;;;;0.44;100.00;97795.50;4931679;28;20028;-79
2023/03/06 04:48:54;;;;;;;27.50;11.80;;;;;;;0.41;100.00;97787.84;4932764;28;20102;-76
2023/03/06 04:51:20;;;;;;;28.95;12.73;;;;;;;0.52;100.00;97805.31;4948202;29;20027;-75
2023/03/06 04:53:45;;;;;;;30.60;12.38;;;;;;;0.51;100.00;97806.31;4932425;29;20043;-75
2023/03/06 04:56:10;;;;;;;27.80;12.55;;;;;;;0.49;100.00;97792.34;4933352;29;20030;-79
2023/03/06 04:58:36;;;;;;;25.92;11.68;;;;;;;0.45;100.00;97786.53;4928839;28;20150;-79
2023/03/06 05:01:02;;;;;;;33.85;12.95;;;;;;;0.41;100.00;97774.53;4947146;28;20189;-77
2023/03/06 05:03:28;;;;;;;29.23;12.05;;;;;;;0.53;100.00;97793.69;4939091;29;20031;-76
2023/03/06 05:05:53;;;;;;;29.33;10.90;;;;;;;0.47;100.00;97781.03;4932007;28;20027;-75
2023/03/06 05:08:18;;;;;;;30.58;11.55;;;;;;;0.51;100.00;97796.50;4931588;28;20032;-76
2023/03/06 05:10:44;;;;;;;33.47;11.30;;;;;;;0.49;100.00;97793.16;4932807;28;20038;-75
2023/03/06 05:13:10;;;;;;;27.27;10.55;;;;;;;0.44;100.00;97787.50;4931518;29;20477;-75
2023/03/06 05:15:39;;;;;;;26.30;11.25;;;;;;;0.45;100.00;97789.19;4931859;29;20031;-77
2023/03/06 05:18:04;;;;;;;26.55;10.80;;;;;;;0.37;100.00;97773.22;4928787;28;20023;-77
2023/03/06 05:20:29;;;;;;;29.70;11.30;;;;;;;0.45;100.00;97783.88;4933120;28;20027;-76
2023/03/06 05:22:54;;;;;;;28.17;11.40;;;;;;;0.53;100.00;97793.69;4947537;28;20351;-74
2023/03/06 05:25:20;;;;;;;32.70;12.32;;;;;;;0.57;100.00;97789.69;4936881;29;20492;-76
2023/03/06 05:27:45;;;;;;;32.63;12.10;;;;;;;0.51;100.00;97785.84;4929839;28;20472;-78
2023/03/06 05:30:13;;;;;;;29.40;12.45;;;;;;;0.46;100.00;97776.72;4949307;28;20560;-80
2023/03/06 05:32:38;;;;;;;26.08;12.00;;;;;;;0.60;100.00;97779.56;4936228;28;20035;-80
2023/03/06 05:35:04;;;;;;;26.50;11.15;;;;;;;0.62;100.00;97790.84;4928069;28;20428;-75
2023/03/06 05:37:30;;;;;;;31.75;12.20;;;;;;;0.57;100.00;97774.53;4941712;28;20024;-78
2023/03/06 05:39:55;;;;;;;24.85;11.52;;;;;;;0.60;100.00;97779.56;4959908;28;20032;-80
2023/03/06 05:42:23;;;;;;;27.77;12.30;;;;;;;0.64;100.00;97770.22;4939792;28;20024;-80
2023/03/06 05:44:52;;;;;;;27.77;11.20;;;;;;;0.69;100.00;97774.25;4939775;29;20028;-80
2023/03/06 05:51:03;;;;;;;27.40;11.75;;;;;;;0.77;100.00;97782.22;4952732;28;20081;-82
2023/03/06 05:53:31;;;;;;;20.70;9.07;;;;;;;0.80;100.00;97781.88;4930593;28;20044;-74
2023/03/06 05:56:02;;;;;;;26.33;11.00;;;;;;;0.37;100.00;97722.66;4982502;28;20541;-77
2023/03/06 05:58:28;;;;;;;23.52;10.50;;;;;;;0.72;100.00;97771.25;4933376;28;20035;-76
2023/03/06 06:00:54;;;;;;;26.52;11.07;;;;;;;0.68;100.00;97769.91;4992447;28;20066;-76
2023/03/06 06:03:19;;;;;;;24.05;10.88;;;;;;;0.77;100.00;97784.88;4931372;29;20107;-77
2023/03/06 06:05:45;;;;;;;24.85;9.80;;;;;;;0.74;100.00;97774.56;4932493;29;20070;-72
2023/03/06 06:08:11;;;;;;;23.98;10.43;;;;;;;0.73;100.00;97763.06;4932220;29;20031;-78
2023/03/06 06:10:37;;;;;;;20.58;9.93;;;;;;;0.73;100.00;97768.41;4949127;28;20027;-79
2023/03/06 06:13:03;;;;;;;24.25;9.88;;;;;;;0.75;100.00;97766.41;4932216;28;20046;-79
2023/03/06 06:15:28;;;;;;;23.02;9.88;;;;;;;0.70;100.00;97746.59;4939126;28;20024;-81
2023/03/06 06:17:55;;;;;;;21.63;9.13;;;;;;;0.79;100.00;97764.25;4935631;29;20023;-80
2023/03/06 06:20:21;;;;;;;21.35;9.27;;;;;;;0.83;100.00;97765.56;4966986;28;20086;-79
2023/03/06 06:22:46;;;;;;;21.88;8.90;;;;;;;0.76;100.00;97752.13;4940826;28;20106;-78
2023/03/06 06:25:12;;;;;;;26.45;8.93;;;;;;;0.95;100.00;97771.41;4960774;28;20461;-72
2023/03/06 06:27:50;;;;;;;20.60;9.55;;;;;;;0.71;100.00;97745.59;4957825;29;20328;-80
2023/03/06 06:30:16;;;;;;;21.45;8.98;;;;;;;0.88;100.00;97771.22;4983203;28;20055;-80
2023/03/06 06:32:43;;;;;;;21.75;9.38;;;;;;;0.94;100.00;97777.72;4934478;28;20130;-80
2023/03/06 06:35:09;;;;;;;20.48;9.38;;;;;;;0.83;100.00;97762.91;4928705;29;20061;-80
2023/03/06 06:37:34;;;;;;;22.13;9.93;;;;;;;0.98;100.00;97771.06;4949158;28;20373;-80
2023/03/06 06:39:59;;;;;;;23.05;9.93;;;;;;;0.93;100.00;97766.22;4956608;28;20028;-76
2023/03/06 06:42:24;;;;;;;22.98;9.98;;;;;;;1.00;100.00;97777.88;4955109;28;20498;-77
2023/03/06 06:44:50;;;;;;;21.17;8.40;;;;;;;0.99;100.00;97778.88;4965435;28;20034;-79
2023/03/06 06:47:15;;;;;;;20.05;8.98;;;;;;;1.04;100.00;97775.72;5031339;28;20045;-77
2023/03/06 06:49:40;;;;;;;20.30;9.13;;;;;;;0.98;100.00;97761.22;5061844;28;20035;-79
2023/03/06 06:52:06;;;;;;;19.73;8.60;;;;;;;1.12;100.00;97777.53;4938790;28;20095;-79
2023/03/06 06:54:33;;;;;;;20.20;9.13;;;;;;;1.18;100.00;97784.84;4954918;29;20015;-78
2023/03/06 06:56:58;;;;;;;19.88;9.10;;;;;;;1.17;100.00;97764.53;4968037;28;20036;-79
2023/03/06 06:59:24;;;;;;;17.15;8.23;;;;;;;1.23;100.00;97771.84;4965331;29;20043;-79
2023/03/06 07:01:52;;;;;;;18.05;8.52;;;;;;;1.31;100.00;97785.19;4950297;29;20063;-79
2023/03/06 07:04:18;;;;;;;15.98;7.22;;;;;;;1.34;100.00;97770.66;4948854;29;20031;-79
2023/03/06 07:06:44;;;;;;;21.60;9.98;;;;;;;1.45;100.00;97778.31;4934134;29;20036;-80
2023/03/06 07:09:11;;;;;;;24.15;10.07;;;;;;;1.35;100.00;97757.16;4960968;28;20496;-80
2023/03/06 07:11:37;;;;;;;20.52;9.63;;;;;;;1.55;100.00;97773.59;4939246;28;20074;-80
2023/03/06 07:14:03;;;;;;;20.50;9.13;;;;;;;1.60;100.00;97781.94;4953276;29;20035;-80
2023/03/06 07:16:28;;;;;;;29.77;10.02;;;;;;;1.65;100.00;97766.25;4943633;28;20394;-79
2023/03/06 07:18:53;;;;;;;26.50;9.43;;;;;;;1.70;100.00;97787.91;4948363;28;20262;-79
2023/03/06 07:21:19;;;;;;;20.15;9.65;;;;;;;1.68;100.00;97775.75;4962633;29;20035;-80
2023/03/06 07:23:44;;;;;;;17.02;8.27;;;;;;;1.71;100.00;97791.38;4959433;28;20034;-78
2023/03/06 07:26:10;;;;;;;18.85;8.27;;;;;;;1.88;100.00;97800.97;4940794;29;20028;-79
2023/03/06 07:28:35;;;;;;;18.52;9.07;;;;;;;1.98;100.00;97785.59;4949363;28;20020;-75
2023/03/06 07:31:01;;;;;;;20.63;8.85;;;;;;;2.10;100.00;97777.22;4960035;28;20090;-79
2023/03/06 07:33:26;;;;;;;18.80;9.45;;;;;;;2.28;100.00;97790.28;4948256;28;20999;-76
2023/03/06 07:35:52;;;;;;;18.73;9.48;;;;;;;2.28;100.00;97779.59;4951029;28;20050;-74
2023/03/06 07:38:17;;;;;;;19.70;8.57;;;;;;;2.51;100.00;97796.47;4945935;28;20039;-74
2023/03/06 07:40:42;;;;;;;25.58;9.38;;;;;;;2.61;100.00;97790.91;4956341;29;20058;-75
2023/03/06 07:43:09;;;;;;;18.83;8.65;;;;;;;2.85;100.00;97800.56;4955957;29;20036;-78
2023/03/06 07:45:34;;;;;;;23.63;9.32;;;;;;;2.96;100.00;97804.66;4953075;29;20028;-77
2023/03/06 07:48:00;;;;;;;21.13;8.98;;;;;;;3.20;100.00;97800.97;4963143;28;20038;-75
2023/03/06 07:50:25;;;;;;;20.58;8.38;;;;;;;3.17;100.00;97804.81;4948485;29;20015;-75
2023/03/06 07:52:51;;;;;;;21.00;8.77;;;;;;;3.10;100.00;97811.06;4956508;29;20068;-75
2023/03/06 07:55:17;;;;;;;18.98;8.48;;;;;;;3.26;100.00;97811.75;4957075;28;20042;-75
2023/03/06 07:57:42;;;;;;;17.17;8.30;;;;;;;3.34;100.00;97813.50;4955648;28;20020;-74
2023/03/06 08:00:14;;;;;;;21.42;9.55;;;;;;;3.34;100.00;97807.34;4953094;29;20042;-74
2023/03/06 08:02:40;;;;;;;18.60;8.52;;;;;;;3.56;100.00;97809.09;4950844;28;20057;-75
2023/03/06 08:05:06;;;;;;;23.50;10.55;;;;;;;3.53;100.00;97812.16;4948024;28;20028;-75
2023/03/06 08:07:32;;;;;;;18.90;7.80;;;;;;;3.75;100.00;97810.44;4947956;28;20030;-78
2023/03/06 08:09:57;;;;;;;21.65;8.63;;;;;;;3.83;100.00;97806.84;4958997;28;20035;-80
2023/03/06 08:12:22;;;;;;;16.98;8.15;;;;;;;3.84;100.00;97808.47;4951661;28;20089;-80
2023/03/06 08:14:48;;;;;;;16.73;8.18;;;;;;;4.00;100.00;97802.09;4956939;28;20039;-73
2023/03/06 08:17:13;;;;;;;17.58;8.20;;;;;;;4.11;100.00;97805.16;4954688;28;20019;-72
2023/03/06 08:19:39;;;;;;;24.63;8.40;;;;;;;3.80;100.00;97807.19;4955458;28;20011;-73
2023/03/06 08:22:09;;;;;;;17.02;8.40;;;;;;;3.58;100.00;97812.44;4957480;28;20088;-78
2023/03/06 08:24:35;;;;;;;16.70;8.25;;;;;;;3.56;100.00;97822.47;4935415;29;20051;-73
2023/03/06 08:27:01;;;;;;;18.83;8.15;;;;;;;3.69;100.00;97817.34;4925247;28;20035;-73
2023/03/06 08:29:26;;;;;;;17.02;7.60;;;;;;;3.93;100.00;97813.56;4940201;29;20361;-77
2023/03/06 08:31:51;;;;;;;15.82;7.47;;;;;;;4.01;100.00;97814.47;4939734;29;20520;-74
2023/03/06 08:34:19;;;;;;;15.40;7.43;;;;;;;3.96;100.00;97807.00;4944092;28;20046;-73
2023/03/06 08:36:45;;;;;;;16.42;7.35;;;;;;;3.84;100.00;97819.19;4945719;28;20032;-73
2023/03/06 08:39:10;;;;;;;18.20;8.40;;;;;;;3.52;100.00;97813.19;4952631;28;20075;-74
2023/03/06 08:41:36;;;;;;;14.82;7.50;;;;;;;3.42;100.00;97820.63;4948690;28;20030;-73
2023/03/06 08:44:04;;;;;;;18.70;8.60;;;;;;;3.67;100.00;97818.53;4952135;28;20083;-73
2023/03/06 08:46:30;;;;;;;16.67;8.63;;;;;;;3.67;100.00;97823.91;4969903;23;20051;-73
2023/03/06 08:48:55;;;;;;;16.30;8.02;;;;;;;3.50;100.00;97823.22;4953031;28;20039;-73
2023/03/06 08:51:22;;;;;;;17.95;8.73;;;;;;;3.51;100.00;97820.38;4953288;28;20499;-73
2023/03/06 08:53:48;;;;;;;18.02;8.27;;;;;;;3.43;100.00;97832.97;4952086;29;20054;-72
2023/03/06 08:56:16;;;;;;;22.08;8.43;;;;;;;3.65;100.00;97841.97;4952103;29;20039;-73
2023/03/06 08:58:41;;;;;;;18.45;8.57;;;;;;;3.50;100.00;97815.19;4934622;29;20075;-72
2023/03/06 09:01:12;;;;;;;18.50;7.60;;;;;;;3.59;100.00;97822.13;4937290;29;20112;-72
2023/03/06 09:03:37;;;;;;;17.42;8.45;;;;;;;3.62;100.00;97808.38;4951669;28;20041;-73
2023/03/06 09:06:02;;;;;;;16.77;8.32;;;;;;;3.83;100.00;97833.59;4952619;28;20504;-73
2023/03/06 09:08:28;;;;;;;16.10;7.32;;;;;;;3.96;100.00;97833.75;4951714;28;20031;-73
2023/03/06 09:10:53;;;;;;;16.60;7.57;;;;;;;3.84;100.00;97820.00;5018465;28;20059;-72
2023/03/06 09:13:18;;;;;;;16.40;8.15;;;;;;;3.97;100.00;97824.72;5051414;28;20112;-72
2023/03/06 09:15:43;;;;;;;17.90;8.50;;;;;;;3.87;100.00;97834.88;4952541;28;20031;-72
2023/03/06 09:18:09;;;;;;;16.88;8.65;;;;;;;3.92;100.00;97833.28;4951813;28;20103;-73
2023/03/06 09:20:35;;;;;;;15.93;8.05;;;;;;;3.96;100.00;97812.34;4951592;28;20154;-73
2023/03/06 09:23:00;;;;;;;17.35;8.35;;;;;;;4.07;100.00;97824.44;4968029;28;20054;-73
2023/03/06 09:25:26;;;;;;;20.60;8.40;;;;;;;4.11;100.00;97821.22;4952334;29;20029;-72
2023/03/06 09:27:51;;;;;;;16.45;8.35;;;;;;;4.13;100.00;97839.75;4952673;28;20038;-72
2023/03/06 09:30:17;;;;;;;17.75;8.45;;;;;;;4.22;100.00;97837.78;4951334;28;20031;-73
2023/03/06 09:32:42;;;;;;;20.23;8.20;;;;;;;4.08;100.00;97839.47;4952875;28;20118;-73
2023/03/06 09:35:09;;;;;;;24.17;9.77;;;;;;;4.35;100.00;97836.13;4953997;28;20480;-72
2023/03/06 09:37:34;;;;;;;18.02;8.23;;;;;;;4.43;100.00;97843.22;4952857;28;20404;-72
2023/03/06 09:39:59;;;;;;;17.90;8.15;;;;;;;4.73;100.00;97835.91;4951905;29;20031;-72
2023/03/06 09:42:27;;;;;;;21.40;8.82;;;;;;;4.70;100.00;97843.53;4951493;28;20116;-72
2023/03/06 09:44:57;;;;;;;20.33;8.70;;;;;;;4.53;100.00;97827.69;4952010;29;20034;-72
2023/03/06 09:47:53;;;;;;;16.27;8.10;;;;;;;4.15;100.00;97841.22;4951780;28;20073;-73
2023/03/06 09:50:39;;;;;;;18.33;7.90;;;;;;;4.59;100.00;97832.28;4950522;29;20119;-72
2023/03/06 09:53:39;;;;;;;18.25;7.78;;;;;;;4.66;100.00;97840.38;4950692;29;20024;-72
2023/03/06 09:56:13;;;;;;;17.48;8.52;;;;;;;4.74;100.00;97845.63;4950274;28;20031;-72
2023/03/06 09:58:48;;;;;;;16.42;7.68;;;;;;;5.00;100.00;97830.81;4951538;28;20023;-72
2023/03/06 10:01:28;;;;;;;15.38;7.53;;;;;;;4.65;100.00;97836.03;4950836;28;20059;-72
2023/03/06 10:04:08;;;;;;;16.27;7.60;;;;;;;4.58;100.00;97830.63;4952104;29;20035;-72
2023/03/06 10:06:47;;;;;;;18.73;7.45;;;;;;;4.52;100.00;97807.25;4950978;28;20085;-72
2023/03/06 10:09:19;;;;;;;17.20;7.63;;;;;;;4.84;100.00;97837.25;4951657;28;20088;-72
2023/03/06 10:11:51;;;;;;;15.45;7.43;;;;;;;4.50;100.00;97822.69;4946878;29;20035;-72
2023/03/06 10:14:34;;;;;;;19.63;7.82;;;;;;;4.79;100.00;97831.66;4932705;29;20027;-72
2023/03/06 10:17:00;;;;;;;19.65;7.80;;;;;;;4.47;100.00;97831.09;4942021;28;20031;-72
2023/03/06 10:19:38;;;;;;;20.77;8.23;;;;;;;5.05;100.00;97831.91;4945974;29;20033;-72
2023/03/06 10:22:25;;;;;;;20.08;8.00;;;;;;;5.17;100.00;97832.22;4946476;28;20031;-72
2023/03/06 10:24:58;;;;;;;15.07;7.60;;;;;;;5.09;100.00;97815.47;4955743;28;20041;-72
2023/03/06 10:27:30;;;;;;;18.48;7.70;;;;;;;4.72;100.00;97836.94;4956114;28;20031;-72
2023/03/06 10:30:11;;;;;;;16.33;7.05;;;;;;;4.60;100.00;97835.78;4954450;28;20038;-72
2023/03/06 10:32:57;;;;;;;14.45;7.50;;;;;;;4.71;100.00;97839.81;4954092;29;20481;-72
2023/03/06 10:35:48;;;;;;;14.57;7.60;;;;;;;4.66;100.00;97823.47;4955740;28;20062;-72
2023/03/06 10:38:25;;;;;;;18.23;7.43;;;;;;;4.83;100.00;97832.94;4936025;29;20044;-72
2023/03/06 10:41:13;;;;;;;19.33;8.07;;;;;;;4.79;100.00;97827.16;4946262;29;20035;-72
2023/03/06 10:43:42;;;;;;;18.30;7.80;;;;;;;5.13;100.00;97819.41;4961836;28;20046;-72
2023/03/06 10:46:10;;;;;;;13.35;7.53;;;;;;;5.28;100.00;97829.03;4953058;28;20110;-72
2023/03/06 10:48:37;;;;;;;16.27;7.72;;;;;;;5.46;100.00;97825.03;4951645;28;20045;-73
2023/03/06 10:51:16;;;;;;;17.38;7.80;;;;;;;5.53;100.00;97830.44;4958270;28;20031;-72
2023/03/06 10:53:55;;;;;;;16.25;7.35;;;;;;;5.66;100.00;97830.56;4969316;28;20392;-73
2023/03/06 10:56:37;;;;;;;;;;;;;;;5.69;100.00;97833.69;4953781;28;20031;-78
2023/03/06 10:59:04;;;;;;;16.75;7.75;;;;;;;5.71;100.00;97833.47;4991885;28;19913;-77
2023/03/06 11:01:30;;;;;;;19.45;9.00;;;;;;;5.96;100.00;97838.41;4958574;28;20027;-78
2023/03/06 11:04:19;;;;;;;20.85;8.23;;;;;;;5.86;100.00;97842.22;4982539;28;20390;-78
2023/03/06 11:06:44;;;;;;;14.45;7.55;;;;;;;5.68;100.00;97793.59;4953701;29;20188;-78
2023/03/06 11:09:21;;;;;;;15.70;7.53;;;;;;;6.33;100.00;97821.84;4954855;28;20647;-78
2023/03/06 11:11:47;;;;;;;16.17;7.55;;;;;;;6.29;100.00;97799.13;4954423;29;20104;-78
2023/03/06 11:14:19;;;;;;;14.13;7.72;;;;;;;6.76;100.00;97820.78;4969804;28;20467;-78
2023/03/06 11:16:52;;;;;;;14.57;7.95;;;;;;;6.90;100.00;97798.25;4952551;28;20474;-79
2023/03/06 11:19:26;;;;;;;17.40;8.30;;;;;;;7.06;100.00;97802.41;4953922;28;20461;-78
2023/03/06 11:22:17;;;;;;;16.38;8.60;;;;;;;6.99;100.00;97815.00;4955868;28;20077;-79
2023/03/06 11:24:49;;;;;;;14.30;7.80;;;;;;;6.90;100.00;97817.06;4955625;28;20030;-78
2023/03/06 11:27:25;;;;;;;13.52;7.00;;;;;;;6.92;100.00;97814.19;4953808;28;20447;-79